Sea Thames — V2BV1 — position and weather

sailwx.info

Track history (hours):
 
Tides and Currents Weather Stations Pressure Air Temp Water Temp Dewpoint Dewpoint Depression Visibility Wind Speed Wind Dir Waves Ship Positions

Sea Thames

Last reported at 2015-May-03 23:18 UTC. Time now 2015-May-05 04:11 UTC.
Position N 51°14' E 004°32'.

Length 87 m; draft 3.3 m.

Type: Cargo ship. MMSI: 304933000.

Date/timePositionNaut miles runAvg speedWind from/ knotsBaromVisibWave heightAir tempDewpointWater temp
2015-May-03 23:18N 51°14' E 004°32'3 3.7
2015-May-03 22:34N 51°14' E 004°28'2 2.3
2015-May-03 21:32N 51°15' E 004°24'0 0.0
2015-May-03 20:33N 51°15' E 004°24'0 0.0
2015-May-03 19:34N 51°15' E 004°24'0 0.1
2015-May-03 18:33N 51°15' E 004°24'0 0.4
2015-May-03 17:33N 51°14' E 004°24'4 4.2
2015-May-03 16:33N 51°17' E 004°19'7 6.7
2015-May-03 15:33N 51°23' E 004°13'6 6.3
2015-May-03 14:34N 51°25' E 004°03'6 6.0
2015-May-03 13:33N 51°23' E 003°54'10 9.7
2015-May-03 12:32N 51°25' E 003°38'81 7.8
2015-May-03 02:08N 52°46' E 003°43'14 8.0
2015-May-03 00:21N 52°57' E 003°59'9 9.6
2015-May-02 23:26N 53°02' E 004°10'  
2015-Apr-28 18:32N 55°31' E 007°32'6 5.9
2015-Apr-28 17:33N 55°28' E 007°40'6 5.6
2015-Apr-28 16:33N 55°25' E 007°48'7 6.0
2015-Apr-28 15:27N 55°24' E 007°60'6 6.6
2015-Apr-28 14:32N 55°25' E 008°10'8 7.9
2015-Apr-28 13:33N 55°29' E 008°22'3 2.7
2015-Apr-28 12:32N 55°28' E 008°26'0 0.0
2015-Apr-28 11:32N 55°28' E 008°26'0 0.0
2015-Apr-28 10:14N 55°28' E 008°26'0 0.0
2015-Apr-28 09:32N 55°28' E 008°26'0 0.0
2015-Apr-28 08:32N 55°28' E 008°26'0 0.0
2015-Apr-28 07:32N 55°28' E 008°26'0 0.0
2015-Apr-28 06:31N 55°28' E 008°26'0 0.0
2015-Apr-27 00:05N 55°27' E 008°27'0 0.0
2015-Apr-26 22:32N 55°27' E 008°27'0 0.0
2015-Apr-26 21:07N 55°27' E 008°27'0 0.0
2015-Apr-26 20:22N 55°27' E 008°27'0 0.0
2015-Apr-26 19:28N 55°27' E 008°27'0 0.0
2015-Apr-26 18:28N 55°27' E 008°27'0 0.0
2015-Apr-26 17:28N 55°27' E 008°27'0 0.0
2015-Apr-26 16:31N 55°27' E 008°27'0 0.0
2015-Apr-26 15:16N 55°27' E 008°27'0 0.0
2015-Apr-26 14:31N 55°27' E 008°27'0 0.0
2015-Apr-26 13:31N 55°27' E 008°27'0 0.0
2015-Apr-26 12:31N 55°27' E 008°27'0 0.0
2015-Apr-26 11:22N 55°27' E 008°27'3 3.9
2015-Apr-26 10:33N 55°29' E 008°22'7 7.2
2015-Apr-26 09:33N 55°24' E 008°12'8 7.6
2015-Apr-26 08:27N 55°20' E 007°59'7 7.6
2015-Apr-26 07:33N 55°16' E 007°49'6 6.0
2015-Apr-26 06:33N 55°13' E 007°40'6 5.9
2015-Apr-26 05:33N 55°10' E 007°32'4 3.8
2015-Apr-26 04:33N 55°07' E 007°28'4 3.6
2015-Apr-26 03:33N 55°03' E 007°26'5 5.3
2015-Apr-26 02:33N 55°01' E 007°17'6 5.7
2015-Apr-26 01:33N 54°60' E 007°08'6 5.6
2015-Apr-26 00:33N 54°58' E 006°59'79 5.6
2015-Apr-25 10:30N 54°11' E 005°10'7 6.9
2015-Apr-25 09:31N 54°08' E 004°60'35 6.8
2015-Apr-25 04:22N 53°33' E 004°48'6 7.1
2015-Apr-25 03:29N 53°27' E 004°44'6 6.9
2015-Apr-25 02:33N 53°22' E 004°40'65 8.2
2015-Apr-24 18:32N 52°23' E 003°52'9 8.7
2015-Apr-24 17:30N 52°14' E 003°54'9 8.9
2015-Apr-24 16:32N 52°06' E 003°57'9 8.9
2015-Apr-24 15:33N 51°59' E 004°06'1010.4
2015-Apr-24 14:33N 51°54' E 004°20'3 2.8
2015-Apr-24 13:33N 51°54' E 004°25'0 0.1
2015-Apr-24 12:33N 51°54' E 004°25'0 0.0
2015-Apr-24 11:33N 51°54' E 004°25'0 0.0
2015-Apr-24 10:33N 51°54' E 004°25'0 0.0
2015-Apr-24 09:33N 51°54' E 004°25'1 0.8
2015-Apr-24 08:33N 51°54' E 004°24'8 7.8
2015-Apr-24 07:33N 51°56' E 004°12'9 9.4
2015-Apr-24 06:33N 52°00' E 003°58'1110.8
2015-Apr-24 05:32N 52°03' E 003°41'1010.4
2015-Apr-24 04:33N 52°09' E 003°27'1110.4
2015-Apr-24 03:30N 52°15' E 003°12'  
Track history (hours):
 
Tides and Currents Weather Stations Pressure Air Temp Water Temp Dewpoint Dewpoint Depression Visibility Wind Speed Wind Dir Waves Ship Positions

Sea Thames

Last reported at 2015-May-03 23:18 UTC. Time now 2015-May-05 04:11 UTC.
Position N 51°14' E 004°32'.

Length 87 m; draft 3.3 m.

Type: Cargo ship. MMSI: 304933000.

Date/timePositionNaut miles runAvg speedWind from/ knotsBaromVisibWave heightAir tempDewpointWater temp
2015-May-03 23:18N 51°14' E 004°32'3 3.7
2015-May-03 22:34N 51°14' E 004°28'2 2.3
2015-May-03 21:32N 51°15' E 004°24'0 0.0
2015-May-03 20:33N 51°15' E 004°24'0 0.0
2015-May-03 19:34N 51°15' E 004°24'0 0.1
2015-May-03 18:33N 51°15' E 004°24'0 0.4
2015-May-03 17:33N 51°14' E 004°24'4 4.2
2015-May-03 16:33N 51°17' E 004°19'7 6.7
2015-May-03 15:33N 51°23' E 004°13'6 6.3
2015-May-03 14:34N 51°25' E 004°03'6 6.0
2015-May-03 13:33N 51°23' E 003°54'10 9.7
2015-May-03 12:32N 51°25' E 003°38'81 7.8
2015-May-03 02:08N 52°46' E 003°43'14 8.0
2015-May-03 00:21N 52°57' E 003°59'9 9.6
2015-May-02 23:26N 53°02' E 004°10'  
2015-Apr-28 18:32N 55°31' E 007°32'6 5.9
2015-Apr-28 17:33N 55°28' E 007°40'6 5.6
2015-Apr-28 16:33N 55°25' E 007°48'7 6.0
2015-Apr-28 15:27N 55°24' E 007°60'6 6.6
2015-Apr-28 14:32N 55°25' E 008°10'8 7.9
2015-Apr-28 13:33N 55°29' E 008°22'3 2.7
2015-Apr-28 12:32N 55°28' E 008°26'0 0.0
2015-Apr-28 11:32N 55°28' E 008°26'0 0.0
2015-Apr-28 10:14N 55°28' E 008°26'0 0.0
2015-Apr-28 09:32N 55°28' E 008°26'0 0.0
2015-Apr-28 08:32N 55°28' E 008°26'0 0.0
2015-Apr-28 07:32N 55°28' E 008°26'0 0.0
2015-Apr-28 06:31N 55°28' E 008°26'0 0.0
2015-Apr-27 00:05N 55°27' E 008°27'0 0.0
2015-Apr-26 22:32N 55°27' E 008°27'0 0.0
2015-Apr-26 21:07N 55°27' E 008°27'0 0.0
2015-Apr-26 20:22N 55°27' E 008°27'0 0.0
2015-Apr-26 19:28N 55°27' E 008°27'0 0.0
2015-Apr-26 18:28N 55°27' E 008°27'0 0.0
2015-Apr-26 17:28N 55°27' E 008°27'0 0.0
2015-Apr-26 16:31N 55°27' E 008°27'0 0.0
2015-Apr-26 15:16N 55°27' E 008°27'0 0.0
2015-Apr-26 14:31N 55°27' E 008°27'0 0.0
2015-Apr-26 13:31N 55°27' E 008°27'0 0.0
2015-Apr-26 12:31N 55°27' E 008°27'0 0.0
2015-Apr-26 11:22N 55°27' E 008°27'3 3.9
2015-Apr-26 10:33N 55°29' E 008°22'7 7.2
2015-Apr-26 09:33N 55°24' E 008°12'8 7.6
2015-Apr-26 08:27N 55°20' E 007°59'7 7.6
2015-Apr-26 07:33N 55°16' E 007°49'6 6.0
2015-Apr-26 06:33N 55°13' E 007°40'6 5.9
2015-Apr-26 05:33N 55°10' E 007°32'4 3.8
2015-Apr-26 04:33N 55°07' E 007°28'4 3.6
2015-Apr-26 03:33N 55°03' E 007°26'5 5.3
2015-Apr-26 02:33N 55°01' E 007°17'6 5.7
2015-Apr-26 01:33N 54°60' E 007°08'6 5.6
2015-Apr-26 00:33N 54°58' E 006°59'79 5.6
2015-Apr-25 10:30N 54°11' E 005°10'7 6.9
2015-Apr-25 09:31N 54°08' E 004°60'35 6.8
2015-Apr-25 04:22N 53°33' E 004°48'6 7.1
2015-Apr-25 03:29N 53°27' E 004°44'6 6.9
2015-Apr-25 02:33N 53°22' E 004°40'65 8.2
2015-Apr-24 18:32N 52°23' E 003°52'9 8.7
2015-Apr-24 17:30N 52°14' E 003°54'9 8.9
2015-Apr-24 16:32N 52°06' E 003°57'9 8.9
2015-Apr-24 15:33N 51°59' E 004°06'1010.4
2015-Apr-24 14:33N 51°54' E 004°20'3 2.8
2015-Apr-24 13:33N 51°54' E 004°25'0 0.1
2015-Apr-24 12:33N 51°54' E 004°25'0 0.0
2015-Apr-24 11:33N 51°54' E 004°25'0 0.0
2015-Apr-24 10:33N 51°54' E 004°25'0 0.0
2015-Apr-24 09:33N 51°54' E 004°25'1 0.8
2015-Apr-24 08:33N 51°54' E 004°24'8 7.8
2015-Apr-24 07:33N 51°56' E 004°12'9 9.4
2015-Apr-24 06:33N 52°00' E 003°58'1110.8
2015-Apr-24 05:32N 52°03' E 003°41'1010.4
2015-Apr-24 04:33N 52°09' E 003°27'1110.4
2015-Apr-24 03:30N 52°15' E 003°12'  

Dump ship's entire track history